Het weer levert geen direct gevaar op.    Er zijn geen waarschuwingen afgegeven.


Onweer radar Meer informatie blitzortung!


Regen radar Meer informatie rain snow radar


Bezoek onze andere website:

Template documentation
and downloads

And another site



Select another period ( hide this area )

Eenheden Periode Custom range Directly to
Metrisch Engels Beide
Dagelijkse Wekelijkse Maandelijkse Jaarlijkse
use both date-selectors for a custom range
previous Dag
With this date

WeatherUnderground graphs for this period ( click here )


Dagelijkse Samenvatting Woensdag 22 mei 2019
Tijd Temp. ( °C ) Dew pt. ( °C ) Wind ( km/h ) van Windvlaag ( km/h ) Luchtdruk ( hPa ) Humid.( % ) Rainrate ( cm )
Hoog17,6 11,1 25,9 Westen ( 659/2590 ) 17,1 1019,7 86 -
Gemiddeld13,4 8,8 9,3 WZW #75/277 5,2 1018,9 74 -
Laag10,5 6,8 -   0,0 1017,5 55 -
Dagelijkse Tabular details for Woensdag 22 mei 2019
Tijd Temp. ( °C ) Dew pt. ( °C ) Wind ( km/h ) van Windvlaag ( km/h ) Luchtdruk ( hPa ) Humid.( % ) Rainrate ( cm )
00:04 11,2 8,7 6,4 WZW 3,2 1017,6 85 -
00:09 11,1 8,7 11,1 Westen 5,8 1017,6 85 -
00:14 11,1 8,7 13,0 NW 7,4 1017,6 85 -
00:15 11,1 8,7 8,0 WNW 12,9 1017,6 85 -
00:29 11,1 8,6 7,4 WNW 6,0 1017,6 85 -
00:34 11,1 8,6 7,4 WNW 4,2 1017,5 85 -
00:39 11,1 8,6 13,0 Westen 5,8 1017,6 85 -
00:44 11,1 8,8 9,3 WZW 3,9 1017,5 86 -
00:49 11,1 8,8 4,8 NW 1,8 1017,7 86 -
00:54 11,1 8,8 3,7 ZO 1,9 1017,7 86 -
00:59 11,0 8,6 7,4 Westen 3,9 1017,7 85 -
01:04 10,9 8,5 13,0 Westen 6,3 1017,7 85 -
01:09 10,9 8,4 11,1 WNW 5,6 1017,8 85 -
01:14 10,8 8,4 3,7 Westen 1,6 1017,7 85 -
01:19 10,8 8,3 9,3 Westen 3,1 1017,8 85 -
01:24 10,8 8,3 9,3 Westen 5,1 1017,7 85 -
01:29 10,8 8,3 5,6 NW 5,3 1017,7 85 -
01:34 10,8 8,3 11,1 NW 3,1 1017,6 85 -
01:39 10,8 8,3 11,1 Westen 3,9 1017,6 85 -
01:44 10,8 8,3 5,6 WNW 4,2 1017,7 85 -
01:49 10,8 8,3 9,3 WNW 3,5 1017,7 85 -
01:54 10,8 8,3 14,8 WNW 8,0 1017,7 85 -
01:59 10,8 8,3 5,6 WZW 3,9 1017,6 85 -
02:04 10,8 8,4 13,0 ZW 6,4 1017,7 85 -
02:09 10,8 8,4 11,1 WNW 7,1 1017,7 85 -
02:14 10,9 8,4 5,6 WNW 2,3 1017,7 85 -
02:19 10,9 8,4 11,1 Westen 6,0 1017,8 85 -
02:24 10,8 8,4 5,6 NO 3,4 1017,8 85 -
02:29 10,8 8,2 11,1 NW 4,0 1017,7 84 -
02:34 10,8 8,2 9,3 WNW 4,2 1017,8 84 -
02:39 10,8 8,2 9,7 Westen 5,0 1017,9 84 -
02:44 10,8 8,2 11,1 WNW 5,1 1017,8 84 -
02:49 10,8 8,1 14,8 WNW 8,4 1017,9 83 -
02:54 10,9 8,1 9,3 NW 6,0 1017,9 83 -
02:59 10,9 8,1 11,1 NW 6,0 1018,0 83 -
03:04 10,9 8,1 6,4 Westen 4,7 1018,0 83 -
03:09 10,9 8,1 3,7 WNW 1,9 1018,1 83 -
03:14 10,9 8,3 5,6 NW 3,4 1018,0 84 -
03:19 10,9 8,3 11,1 WNW 4,2 1018,1 84 -
03:24 10,9 8,3 9,7 Westen 3,2 1018,0 84 -
03:29 10,9 8,3 14,8 Westen 6,1 1018,1 84 -
03:34 10,9 8,5 9,3 WNW 4,5 1018,2 85 -
03:39 10,9 8,5 5,6 NW 3,1 1018,2 85 -
03:44 10,9 8,3 13,0 NNW 5,8 1018,2 84 -
03:49 10,8 8,2 3,7 NW 2,3 1018,2 84 -
03:54 10,9 8,3 9,7 WNW 3,7 1018,2 84 -
03:59 10,9 8,3 5,6 WNW 2,3 1018,2 84 -
04:04 10,8 8,2 5,6 WNW 1,4 1018,3 84 -
04:09 10,8 8,1 13,0 Westen 6,3 1018,2 83 -
04:14 10,8 8,1 6,4 Westen 3,9 1018,2 83 -
04:19 10,9 8,1 6,4 Westen 6,6 1018,2 83 -
04:24 10,9 8,1 5,6 WNW 2,7 1018,2 83 -
04:29 10,9 8,1 6,4 WNW 3,5 1018,2 83 -
04:34 10,9 8,3 5,6 WNW 2,7 1018,2 84 -
04:39 11,0 8,4 9,3 Westen 6,4 1018,2 84 -
04:44 11,0 8,4 9,3 Westen 3,9 1018,2 84 -
04:49 11,0 8,4 9,3 WNW 3,5 1018,2 84 -
04:54 11,0 8,4 13,0 Westen 6,6 1018,2 84 -
04:59 11,0 8,4 6,4 Westen 4,2 1018,2 84 -
05:04 11,0 8,4 14,8 WNW 5,5 1018,3 84 -
05:09 11,0 8,4 11,3 NW 4,7 1018,2 84 -
05:14 10,9 8,1 5,6 WNW 4,3 1018,2 83 -
05:19 10,8 7,9 11,1 Westen 6,9 1018,3 82 -
05:24 10,8 7,8 13,0 Westen 5,6 1018,3 82 -
05:29 10,8 7,8 9,3 NW 5,0 1018,2 82 -
05:34 10,8 7,8 9,3 Westen 5,3 1018,2 82 -
05:39 10,8 7,8 9,3 Westen 4,5 1018,2 82 -
05:44 10,8 7,9 7,4 Westen 3,2 1018,3 82 -
05:49 10,8 8,1 9,3 Westen 4,8 1018,2 83 -
05:54 10,8 8,1 13,0 WNW 5,3 1018,2 83 -
05:59 10,8 8,0 9,7 Westen 5,6 1018,2 83 -
06:04 10,8 8,0 11,1 WNW 6,8 1018,3 83 -
06:09 10,7 7,9 13,0 Westen 6,6 1018,3 83 -
06:14 10,6 7,7 9,7 Westen 6,8 1018,3 82 -
06:19 10,6 7,8 9,3 WNW 5,0 1018,3 83 -
06:24 10,6 7,8 5,6 Westen 3,4 1018,4 83 -
06:29 10,7 7,9 13,0 Westen 4,5 1018,4 83 -
06:34 10,7 7,9 5,6 Westen 3,9 1018,4 83 -
06:39 10,7 7,9 16,7 Westen 7,1 1018,4 83 -
06:44 10,6 7,8 11,1 Westen 7,2 1018,5 83 -
06:49 10,6 7,8 11,1 WNW 6,9 1018,5 83 -
06:54 10,5 7,7 5,6 WNW 3,9 1018,6 83 -
06:59 10,5 7,7 3,7 Westen 2,6 1018,6 83 -
07:04 10,6 7,8 5,6 NW 2,6 1018,6 83 -
07:09 10,6 7,8 3,7 NW 1,1 1018,6 83 -
07:14 10,7 8,1 3,2 WNW 1,1 1018,6 84 -
07:19 10,8 8,2 3,7 WNW 2,9 1018,6 84 -
07:24 10,8 8,1 18,5 Westen 11,1 1018,6 83 -
07:29 10,8 8,0 5,6 WNW 4,2 1018,7 83 -
07:34 10,8 8,1 5,6 WNW 4,8 1018,7 83 -
07:39 10,9 8,1 3,7 WNW 1,1 1018,7 83 -
07:44 10,9 8,2 8,0 NW 5,0 1018,7 83 -
07:49 11,0 8,2 6,4 NW 4,3 1018,7 83 -
07:54 11,0 8,1 5,6 Westen 2,6 1018,7 82 -
07:59 11,1 8,1 5,6 WNW 3,2 1018,7 82 -
08:04 11,2 8,2 13,0 WNW 7,1 1018,7 82 -
08:09 11,3 8,4 3,7 WNW 1,6 1018,7 82 -
08:14 11,6 8,6 6,4 Noorden 4,3 1018,7 82 -
08:19 11,7 8,7 5,6 Noorden 3,1 1018,7 82 -
08:24 11,9 8,7 5,6 NNW 1,8 1018,8 81 -
08:29 11,9 8,6 5,6 Noorden 3,7 1018,9 80 -
08:34 11,9 8,6 6,4 NW 1,8 1019,0 80 -
08:39 11,9 8,6 11,1 WNW 2,6 1019,0 80 -
08:44 11,9 8,6 16,7 Westen 8,5 1018,9 80 -
08:49 11,9 8,6 7,4 ZW 4,2 1019,0 80 -
08:54 12,0 8,7 6,4 Westen 5,0 1019,1 80 -
08:59 11,9 8,4 11,1 Westen 5,3 1019,1 79 -
09:04 11,9 8,3 11,1 WNW 5,5 1019,1 79 -
09:09 11,9 8,3 5,6 WNW 2,4 1019,1 79 -
09:14 12,1 8,7 1,9 WNW 1,0 1019,1 80 -
09:19 12,3 8,7 14,8 WNW 8,8 1019,1 79 -
09:24 12,3 8,7 11,1 WZW 5,6 1019,2 79 -
09:29 12,2 8,4 11,1 WNW 3,2 1019,2 78 -
09:34 12,2 8,7 11,1 Westen 5,0 1019,3 79 -
09:39 12,2 8,7 11,3 Westen 4,8 1019,3 79 -
09:44 12,2 8,7 9,3 Westen 5,3 1019,2 79 -
09:49 12,3 8,7 13,0 WNW 4,2 1019,3 79 -
09:54 12,3 8,8 14,5 Westen 7,4 1019,3 79 -
09:59 12,5 8,9 3,7 WZW 3,9 1019,3 79 -
10:04 12,5 8,8 11,1 Westen 4,2 1019,2 78 -
10:09 12,6 9,1 3,7 WNW 1,1 1019,2 79 -
10:14 12,9 9,2 7,4 ZW 5,6 1019,3 78 -
10:19 13,2 9,3 7,4 WZW 2,4 1019,2 77 -
10:24 13,4 9,2 9,3 ZW 5,5 1019,2 76 -
10:29 13,5 9,3 11,1 WZW 7,2 1019,2 76 -
10:34 13,4 9,2 9,7 WNW 6,9 1019,2 76 -
10:39 13,3 9,1 11,3 WZW 4,7 1019,2 76 -
10:44 13,2 9,1 12,9 WZW 6,8 1019,2 76 -
10:49 13,2 9,2 9,3 NW 4,3 1019,1 77 -
10:54 13,3 9,4 11,1 Westen 5,8 1019,2 77 -
10:59 13,3 9,2 9,3 Westen 4,8 1019,1 76 -
11:04 13,3 9,2 16,7 Westen 9,2 1019,2 76 -
11:09 13,4 9,2 9,3 Westen 6,4 1019,1 76 -
11:14 13,6 9,4 7,4 WNW 1,0 1019,2 76 -
11:19 13,6 9,4 5,6 WZW 3,2 1019,1 76 -
11:24 13,8 9,6 7,4 WZW 3,1 1019,1 76 -
11:29 14,0 9,6 7,4 ZZW 2,1 1019,1 75 -
11:34 14,1 9,7 13,0 ZW 6,8 1019,2 75 -
11:39 14,1 9,7 9,7 WZW 8,5 1019,3 75 -
11:44 14,0 9,6 13,0 WZW 7,1 1019,2 75 -
11:49 13,9 9,7 5,6 ZW 5,3 1019,2 76 -
11:54 13,9 9,8 11,3 ZW 8,2 1019,1 76 -
11:59 14,0 9,8 9,3 ZZW 6,9 1019,1 76 -
12:04 14,4 10,2 8,0 ZW 6,6 1019,0 76 -
12:09 14,7 9,9 13,0 ZZW 3,5 1018,9 73 -
12:14 14,9 10,1 9,7 Zuiden 6,4 1018,9 73 -
12:19 15,2 10,2 6,4 WZW 7,6 1018,9 72 -
12:24 15,4 10,2 11,3 ZW 11,3 1019,0 71 -
12:29 15,5 9,8 11,1 WZW 6,3 1019,1 69 -
12:34 15,6 9,9 13,0 ZW 5,6 1019,2 69 -
12:39 15,8 9,9 16,1 ZW 13,7 1019,2 68 -
12:44 16,1 9,9 18,5 ZZW 15,6 1019,2 67 -
12:49 16,4 9,8 16,7 ZW 13,4 1019,3 65 -
12:54 16,7 9,8 18,5 ZZW 11,7 1019,4 64 -
12:59 16,6 9,9 19,3 ZW 15,9 1019,5 65 -
13:04 16,3 9,9 20,9 ZW 14,6 1019,5 66 -
13:09 16,0 10,1 24,1 WNW 17,1 1019,5 68 -
13:14 15,5 10,1 18,5 ZW 11,7 1019,6 70 -
13:19 15,1 9,7 18,5 ZW 10,6 1019,6 70 -
13:24 14,7 9,7 25,9 ZW 12,2 1019,7 72 -
13:29 14,3 9,8 14,8 WNW 9,0 1019,7 74 -
13:34 14,2 9,6 16,7 ZW 12,1 1019,6 74 -
13:39 14,2 9,7 20,4 WZW 10,9 1019,6 74 -
13:44 14,3 9,7 18,5 ZW 7,6 1019,6 74 -
13:49 14,3 9,9 20,4 WZW 14,6 1019,6 75 -
13:54 14,4 10,0 13,0 ZZW 9,7 1019,6 75 -
13:59 14,4 10,1 18,5 WZW 7,4 1019,6 75 -
14:04 14,5 10,1 20,4 Westen 9,8 1019,6 75 -
14:09 14,5 10,3 18,5 Westen 7,7 1019,6 76 -
14:14 14,6 10,4 13,0 ZW 9,8 1019,5 76 -
14:19 14,7 10,5 18,5 WZW 13,8 1019,5 76 -
14:24 14,8 10,6 14,8 ZZW 8,2 1019,5 76 -
14:29 15,0 10,8 13,0 WZW 10,5 1019,5 76 -
14:34 15,4 11,0 14,8 ZW 10,0 1019,5 75 -
14:39 15,6 10,9 16,7 ZW 8,7 1019,4 74 -
14:44 15,4 10,8 18,5 ZZW 12,4 1019,4 74 -
14:49 15,3 10,7 16,1 ZZW 11,6 1019,3 74 -
14:54 15,4 11,0 16,7 WZW 11,7 1019,4 75 -
14:59 15,4 10,8 14,8 ZZW 9,8 1019,5 74 -
15:04 15,6 10,8 14,8 ZZW 8,7 1019,4 73 -
15:09 15,9 11,1 22,2 ZW 10,9 1019,4 73 -
15:14 15,8 10,8 13,0 WZW 11,7 1019,3 72 -
15:19 16,0 10,9 14,8 ZW 8,8 1019,3 72 -
15:24 16,1 10,8 14,8 Westen 8,2 1019,3 71 -
15:29 16,1 10,6 14,8 Westen 7,2 1019,4 70 -
15:34 16,1 10,6 13,0 ZW 6,3 1019,3 70 -
15:39 16,2 10,4 14,8 Westen 8,2 1019,4 69 -
15:44 16,3 10,4 11,1 ZW 6,0 1019,3 68 -
15:49 16,4 10,1 9,7 WZW 7,6 1019,3 66 -
15:54 16,6 9,2 16,7 NW 6,6 1019,3 62 -
15:59 16,7 9,1 7,4 WNW 5,0 1019,3 61 -
16:04 16,7 8,4 8,0 WZW 5,8 1019,3 58 -
16:09 17,1 9,5 11,1 Oosten 3,4 1019,3 61 -
16:14 17,3 9,2 9,7 Westen 3,4 1019,4 59 -
16:19 17,4 9,1 6,4 WNW 6,1 1019,4 58 -
16:24 17,5 9,2 5,6 Westen 1,6 1019,4 58 -
16:29 17,6 8,4 14,8 WNW 3,9 1019,5 55 -
16:34 17,4 8,3 5,6 WZW 4,5 1019,5 55 -
16:39 17,4 8,8 14,8 WZW 7,4 1019,6 57 -
16:44 17,2 8,6 5,6 NW 3,2 1019,4 57 -
16:49 17,1 8,5 18,5 NNW 3,4 1019,6 57 -
16:54 17,0 8,7 7,4 Westen 6,1 1019,5 58 -
16:59 16,8 8,2 16,7 WNW 5,3 1019,5 57 -
17:04 16,7 8,3 9,3 NW 3,4 1019,5 58 -
17:09 16,7 7,9 14,8 Westen 8,0 1019,6 56 -
17:14 16,8 8,2 11,1 WNW 4,2 1019,6 57 -
17:19 16,8 8,0 18,5 ZW 8,0 1019,6 56 -
17:24 17,0 8,4 13,0 WZW 8,4 1019,6 57 -
17:29 16,9 7,8 5,6 Westen 3,2 1019,7 55 -
17:34 16,9 8,6 7,4 Westen 5,8 1019,7 58 -
17:39 16,9 8,9 5,6 WNW 2,4 1019,7 59 -
17:44 17,1 9,0 5,6 Westen 3,2 1019,7 59 -
17:49 16,9 8,6 9,7 WNW 7,4 1019,6 58 -
17:54 16,8 8,4 13,0 WNW 8,7 1019,7 58 -
17:59 16,4 8,6 16,1 WZW 12,2 1019,7 60 -
18:04 15,8 8,6 8,0 WZW 5,5 1019,7 62 -
18:09 15,6 8,1 14,8 WNW 5,8 1019,7 61 -
18:14 15,7 7,9 11,3 WZW 7,9 1019,6 60 -
18:19 15,8 7,5 13,0 WZW 8,4 1019,7 58 -
18:24 15,8 7,5 5,6 WZW 3,1 1019,6 58 -
18:29 15,9 7,6 5,6 Westen 1,3 1019,6 58 -
18:34 16,1 7,6 11,1 Westen 5,8 1019,5 57 -
18:39 16,3 8,0 9,3 ZZW 5,1 1019,5 58 -
18:44 16,3 7,8 6,4 ZW 5,6 1019,5 57 -
18:49 16,4 7,8 5,6 ZW 4,3 1019,4 57 -
18:54 16,3 7,7 6,4 ZW 4,5 1019,4 57 -
18:59 16,2 7,6 6,4 ZW 4,7 1019,3 57 -
19:04 16,2 7,7 8,0 ZW 6,0 1019,4 57 -
19:09 16,4 7,8 5,6 ZW 3,4 1019,4 57 -
19:14 16,6 7,8 7,4 WZW 6,0 1019,4 56 -
19:19 16,6 7,7 5,6 WZW 3,4 1019,3 56 -
19:24 16,3 7,3 5,6 WZW 3,1 1019,2 55 -
19:29 16,1 7,6 5,6 WZW 2,3 1019,2 57 -
19:34 15,8 6,8 5,6 WZW 2,9 1019,2 55 -
19:39 15,6 7,4 3,7 WZW 1,0 1019,2 58 -
19:44 15,5 7,3 3,7 WZW 1,9 1019,2 58 -
19:49 15,4 7,7 5,6 WZW 3,9 1019,2 60 -
19:54 15,3 8,1 5,6 WZW 3,4 1019,1 62 -
19:59 15,2 8,4 5,6 WZW 2,9 1019,2 64 -
20:04 15,1 8,7 5,6 WZW 3,9 1019,2 66 -
20:09 14,9 8,9 5,6 WZW 3,2 1019,2 67 -
20:14 14,9 8,8 5,6 WZW 3,9 1019,2 67 -
20:19 14,8 8,5 3,7 WZW 2,1 1019,2 66 -
20:24 14,8 8,7 5,6 WZW 2,7 1019,2 67 -
20:29 14,8 8,9 3,7 WZW 1,9 1019,2 68 -
20:34 14,7 9,1 5,6 WZW 3,1 1019,1 69 -
20:39 14,7 9,3 5,6 WZW 3,1 1019,1 70 -
20:44 14,7 9,3 3,7 WZW 1,4 1019,0 70 -
20:49 14,7 9,3 5,6 WZW 4,3 1019,0 70 -
20:54 14,7 9,3 3,7 WZW 3,1 1019,0 70 -
20:59 14,7 8,9 5,6 WZW 3,7 1019,0 68 -
21:04 14,7 9,3 5,6 WZW 2,9 1019,1 70 -
21:09 14,7 9,3 5,6 WZW 1,8 1019,1 70 -
21:14 14,6 9,2 5,6 WZW 0,8 1019,1 70 -
21:19 14,4 8,8 3,2 WZW 1,3 1019,1 69 -
21:24 14,3 8,7 3,2 WZW 1,6 1019,1 69 -
21:29 14,3 8,7 5,6 WZW 3,5 1019,1 69 -
21:34 14,3 8,7 3,7 WZW 1,3 1019,1 69 -
21:39 14,2 9,1 1,9 WZW 0,2 1019,1 71 -
21:44 14,2 9,2 1,9 WZW 0,3 1019,1 72 -
21:49 14,1 9,1 3,2 WZW 2,3 1019,2 72 -
21:54 14,0 9,1 5,6 WZW 1,3 1019,2 72 -
21:59 13,9 8,9 3,7 WZW 2,3 1019,2 72 -
22:04 13,8 8,9 3,7 WZW 1,6 1019,2 72 -
22:09 13,7 8,9 3,7 WZW 2,3 1019,2 73 -
22:14 13,7 9,2 1,9 WZW 1,3 1019,3 74 -
22:19 13,7 9,2 1,9 WZW 1,0 1019,2 74 -
22:24 13,7 9,1 1,9 WZW 1,0 1019,3 74 -
22:29 13,7 9,1 3,7 WZW 1,9 1019,3 74 -
22:34 13,6 9,2 1,9 WZW 0,3 1019,2 75 -
22:39 13,5 9,2   Kalm 0,2 1019,3 75 -
22:44 13,5 9,2   Kalm   1019,2 75 -
22:49 13,4 9,1 1,9 WZW 0,2 1019,1 75 -
22:54 13,3 9,2 1,9 WZW   1019,2 76 -
22:59 13,2 9,1   Kalm   1019,1 76 -
23:04 13,1 9,2   Kalm   1019,1 77 -
23:09 13,1 9,1   Kalm   1019,1 77 -
Dagelijkse Samenvatting Woensdag 22 mei 2019
Tijd Temp. ( °C ) Dew pt. ( °C ) Wind ( km/h ) van Windvlaag ( km/h ) Luchtdruk ( hPa ) Humid.( % ) Rainrate ( cm )
Hoog17,6 11,1 25,9 Westen ( 659/2590 ) 17,1 1019,7 86 -
Gemiddeld13,4 8,8 9,3 WZW #75/277 5,2 1018,9 74 -
Laag10,5 6,8 -   0,0 1017,5 55 -
Dagelijkse Tabular details for Woensdag 22 mei 2019
Tijd Temp. ( °C ) Dew pt. ( °C ) Wind ( km/h ) van Windvlaag ( km/h ) Luchtdruk ( hPa ) Humid.( % ) Rainrate ( cm )
00:04 11,2 8,7 6,4 WZW 3,2 1017,6 85 -
00:09 11,1 8,7 11,1 Westen 5,8 1017,6 85 -
00:14 11,1 8,7 13,0 NW 7,4 1017,6 85 -
00:15 11,1 8,7 8,0 WNW 12,9 1017,6 85 -
00:29 11,1 8,6 7,4 WNW 6,0 1017,6 85 -
00:34 11,1 8,6 7,4 WNW 4,2 1017,5 85 -
00:39 11,1 8,6 13,0 Westen 5,8 1017,6 85 -
00:44 11,1 8,8 9,3 WZW 3,9 1017,5 86 -
00:49 11,1 8,8 4,8 NW 1,8 1017,7 86 -
00:54 11,1 8,8 3,7 ZO 1,9 1017,7 86 -
00:59 11,0 8,6 7,4 Westen 3,9 1017,7 85 -
01:04 10,9 8,5 13,0 Westen 6,3 1017,7 85 -
01:09 10,9 8,4 11,1 WNW 5,6 1017,8 85 -
01:14 10,8 8,4 3,7 Westen 1,6 1017,7 85 -
01:19 10,8 8,3 9,3 Westen 3,1 1017,8 85 -
01:24 10,8 8,3 9,3 Westen 5,1 1017,7 85 -
01:29 10,8 8,3 5,6 NW 5,3 1017,7 85 -
01:34 10,8 8,3 11,1 NW 3,1 1017,6 85 -
01:39 10,8 8,3 11,1 Westen 3,9 1017,6 85 -
01:44 10,8 8,3 5,6 WNW 4,2 1017,7 85 -
01:49 10,8 8,3 9,3 WNW 3,5 1017,7 85 -
01:54 10,8 8,3 14,8 WNW 8,0 1017,7 85 -
01:59 10,8 8,3 5,6 WZW 3,9 1017,6 85 -
02:04 10,8 8,4 13,0 ZW 6,4 1017,7 85 -
02:09 10,8 8,4 11,1 WNW 7,1 1017,7 85 -
02:14 10,9 8,4 5,6 WNW 2,3 1017,7 85 -
02:19 10,9 8,4 11,1 Westen 6,0 1017,8 85 -
02:24 10,8 8,4 5,6 NO 3,4 1017,8 85 -
02:29 10,8 8,2 11,1 NW 4,0 1017,7 84 -
02:34 10,8 8,2 9,3 WNW 4,2 1017,8 84 -
02:39 10,8 8,2 9,7 Westen 5,0 1017,9 84 -
02:44 10,8 8,2 11,1 WNW 5,1 1017,8 84 -
02:49 10,8 8,1 14,8 WNW 8,4 1017,9 83 -
02:54 10,9 8,1 9,3 NW 6,0 1017,9 83 -
02:59 10,9 8,1 11,1 NW 6,0 1018,0 83 -
03:04 10,9 8,1 6,4 Westen 4,7 1018,0 83 -
03:09 10,9 8,1 3,7 WNW 1,9 1018,1 83 -
03:14 10,9 8,3 5,6 NW 3,4 1018,0 84 -
03:19 10,9 8,3 11,1 WNW 4,2 1018,1 84 -
03:24 10,9 8,3 9,7 Westen 3,2 1018,0 84 -
03:29 10,9 8,3 14,8 Westen 6,1 1018,1 84 -
03:34 10,9 8,5 9,3 WNW 4,5 1018,2 85 -
03:39 10,9 8,5 5,6 NW 3,1 1018,2 85 -
03:44 10,9 8,3 13,0 NNW 5,8 1018,2 84 -
03:49 10,8 8,2 3,7 NW 2,3 1018,2 84 -
03:54 10,9 8,3 9,7 WNW 3,7 1018,2 84 -
03:59 10,9 8,3 5,6 WNW 2,3 1018,2 84 -
04:04 10,8 8,2 5,6 WNW 1,4 1018,3 84 -
04:09 10,8 8,1 13,0 Westen 6,3 1018,2 83 -
04:14 10,8 8,1 6,4 Westen 3,9 1018,2 83 -
04:19 10,9 8,1 6,4 Westen 6,6 1018,2 83 -
04:24 10,9 8,1 5,6 WNW 2,7 1018,2 83 -
04:29 10,9 8,1 6,4 WNW 3,5 1018,2 83 -
04:34 10,9 8,3 5,6 WNW 2,7 1018,2 84 -
04:39 11,0 8,4 9,3 Westen 6,4 1018,2 84 -
04:44 11,0 8,4 9,3 Westen 3,9 1018,2 84 -
04:49 11,0 8,4 9,3 WNW 3,5 1018,2 84 -
04:54 11,0 8,4 13,0 Westen 6,6 1018,2 84 -
04:59 11,0 8,4 6,4 Westen 4,2 1018,2 84 -
05:04 11,0 8,4 14,8 WNW 5,5 1018,3 84 -
05:09 11,0 8,4 11,3 NW 4,7 1018,2 84 -
05:14 10,9 8,1 5,6 WNW 4,3 1018,2 83 -
05:19 10,8 7,9 11,1 Westen 6,9 1018,3 82 -
05:24 10,8 7,8 13,0 Westen 5,6 1018,3 82 -
05:29 10,8 7,8 9,3 NW 5,0 1018,2 82 -
05:34 10,8 7,8 9,3 Westen 5,3 1018,2 82 -
05:39 10,8 7,8 9,3 Westen 4,5 1018,2 82 -
05:44 10,8 7,9 7,4 Westen 3,2 1018,3 82 -
05:49 10,8 8,1 9,3 Westen 4,8 1018,2 83 -
05:54 10,8 8,1 13,0 WNW 5,3 1018,2 83 -
05:59 10,8 8,0 9,7 Westen 5,6 1018,2 83 -
06:04 10,8 8,0 11,1 WNW 6,8 1018,3 83 -
06:09 10,7 7,9 13,0 Westen 6,6 1018,3 83 -
06:14 10,6 7,7 9,7 Westen 6,8 1018,3 82 -
06:19 10,6 7,8 9,3 WNW 5,0 1018,3 83 -
06:24 10,6 7,8 5,6 Westen 3,4 1018,4 83 -
06:29 10,7 7,9 13,0 Westen 4,5 1018,4 83 -
06:34 10,7 7,9 5,6 Westen 3,9 1018,4 83 -
06:39 10,7 7,9 16,7 Westen 7,1 1018,4 83 -
06:44 10,6 7,8 11,1 Westen 7,2 1018,5 83 -
06:49 10,6 7,8 11,1 WNW 6,9 1018,5 83 -
06:54 10,5 7,7 5,6 WNW 3,9 1018,6 83 -
06:59 10,5 7,7 3,7 Westen 2,6 1018,6 83 -
07:04 10,6 7,8 5,6 NW 2,6 1018,6 83 -
07:09 10,6 7,8 3,7 NW 1,1 1018,6 83 -
07:14 10,7 8,1 3,2 WNW 1,1 1018,6 84 -
07:19 10,8 8,2 3,7 WNW 2,9 1018,6 84 -
07:24 10,8 8,1 18,5 Westen 11,1 1018,6 83 -
07:29 10,8 8,0 5,6 WNW 4,2 1018,7 83 -
07:34 10,8 8,1 5,6 WNW 4,8 1018,7 83 -
07:39 10,9 8,1 3,7 WNW 1,1 1018,7 83 -
07:44 10,9 8,2 8,0 NW 5,0 1018,7 83 -
07:49 11,0 8,2 6,4 NW 4,3 1018,7 83 -
07:54 11,0 8,1 5,6 Westen 2,6 1018,7 82 -
07:59 11,1 8,1 5,6 WNW 3,2 1018,7 82 -
08:04 11,2 8,2 13,0 WNW 7,1 1018,7 82 -
08:09 11,3 8,4 3,7 WNW 1,6 1018,7 82 -
08:14 11,6 8,6 6,4 Noorden 4,3 1018,7 82 -
08:19 11,7 8,7 5,6 Noorden 3,1 1018,7 82 -
08:24 11,9 8,7 5,6 NNW 1,8 1018,8 81 -
08:29 11,9 8,6 5,6 Noorden 3,7 1018,9 80 -
08:34 11,9 8,6 6,4 NW 1,8 1019,0 80 -
08:39 11,9 8,6 11,1 WNW 2,6 1019,0 80 -
08:44 11,9 8,6 16,7 Westen 8,5 1018,9 80 -
08:49 11,9 8,6 7,4 ZW 4,2 1019,0 80 -
08:54 12,0 8,7 6,4 Westen 5,0 1019,1 80 -
08:59 11,9 8,4 11,1 Westen 5,3 1019,1 79 -
09:04 11,9 8,3 11,1 WNW 5,5 1019,1 79 -
09:09 11,9 8,3 5,6 WNW 2,4 1019,1 79 -
09:14 12,1 8,7 1,9 WNW 1,0 1019,1 80 -
09:19 12,3 8,7 14,8 WNW 8,8 1019,1 79 -
09:24 12,3 8,7 11,1 WZW 5,6 1019,2 79 -
09:29 12,2 8,4 11,1 WNW 3,2 1019,2 78 -
09:34 12,2 8,7 11,1 Westen 5,0 1019,3 79 -
09:39 12,2 8,7 11,3 Westen 4,8 1019,3 79 -
09:44 12,2 8,7 9,3 Westen 5,3 1019,2 79 -
09:49 12,3 8,7 13,0 WNW 4,2 1019,3 79 -
09:54 12,3 8,8 14,5 Westen 7,4 1019,3 79 -
09:59 12,5 8,9 3,7 WZW 3,9 1019,3 79 -
10:04 12,5 8,8 11,1 Westen 4,2 1019,2 78 -
10:09 12,6 9,1 3,7 WNW 1,1 1019,2 79 -
10:14 12,9 9,2 7,4 ZW 5,6 1019,3 78 -
10:19 13,2 9,3 7,4 WZW 2,4 1019,2 77 -
10:24 13,4 9,2 9,3 ZW 5,5 1019,2 76 -
10:29 13,5 9,3 11,1 WZW 7,2 1019,2 76 -
10:34 13,4 9,2 9,7 WNW 6,9 1019,2 76 -
10:39 13,3 9,1 11,3 WZW 4,7 1019,2 76 -
10:44 13,2 9,1 12,9 WZW 6,8 1019,2 76 -
10:49 13,2 9,2 9,3 NW 4,3 1019,1 77 -
10:54 13,3 9,4 11,1 Westen 5,8 1019,2 77 -
10:59 13,3 9,2 9,3 Westen 4,8 1019,1 76 -
11:04 13,3 9,2 16,7 Westen 9,2 1019,2 76 -
11:09 13,4 9,2 9,3 Westen 6,4 1019,1 76 -
11:14 13,6 9,4 7,4 WNW 1,0 1019,2 76 -
11:19 13,6 9,4 5,6 WZW 3,2 1019,1 76 -
11:24 13,8 9,6 7,4 WZW 3,1 1019,1 76 -
11:29 14,0 9,6 7,4 ZZW 2,1 1019,1 75 -
11:34 14,1 9,7 13,0 ZW 6,8 1019,2 75 -
11:39 14,1 9,7 9,7 WZW 8,5 1019,3 75 -
11:44 14,0 9,6 13,0 WZW 7,1 1019,2 75 -
11:49 13,9 9,7 5,6 ZW 5,3 1019,2 76 -
11:54 13,9 9,8 11,3 ZW 8,2 1019,1 76 -
11:59 14,0 9,8 9,3 ZZW 6,9 1019,1 76 -
12:04 14,4 10,2 8,0 ZW 6,6 1019,0 76 -
12:09 14,7 9,9 13,0 ZZW 3,5 1018,9 73 -
12:14 14,9 10,1 9,7 Zuiden 6,4 1018,9 73 -
12:19 15,2 10,2 6,4 WZW 7,6 1018,9 72 -
12:24 15,4 10,2 11,3 ZW 11,3 1019,0 71 -
12:29 15,5 9,8 11,1 WZW 6,3 1019,1 69 -
12:34 15,6 9,9 13,0 ZW 5,6 1019,2 69 -
12:39 15,8 9,9 16,1 ZW 13,7 1019,2 68 -
12:44 16,1 9,9 18,5 ZZW 15,6 1019,2 67 -
12:49 16,4 9,8 16,7 ZW 13,4 1019,3 65 -
12:54 16,7 9,8 18,5 ZZW 11,7 1019,4 64 -
12:59 16,6 9,9 19,3 ZW 15,9 1019,5 65 -
13:04 16,3 9,9 20,9 ZW 14,6 1019,5 66 -
13:09 16,0 10,1 24,1 WNW 17,1 1019,5 68 -
13:14 15,5 10,1 18,5 ZW 11,7 1019,6 70 -
13:19 15,1 9,7 18,5 ZW 10,6 1019,6 70 -
13:24 14,7 9,7 25,9 ZW 12,2 1019,7 72 -
13:29 14,3 9,8 14,8 WNW 9,0 1019,7 74 -
13:34 14,2 9,6 16,7 ZW 12,1 1019,6 74 -
13:39 14,2 9,7 20,4 WZW 10,9 1019,6 74 -
13:44 14,3 9,7 18,5 ZW 7,6 1019,6 74 -
13:49 14,3 9,9 20,4 WZW 14,6 1019,6 75 -
13:54 14,4 10,0 13,0 ZZW 9,7 1019,6 75 -
13:59 14,4 10,1 18,5 WZW 7,4 1019,6 75 -
14:04 14,5 10,1 20,4 Westen 9,8 1019,6 75 -
14:09 14,5 10,3 18,5 Westen 7,7 1019,6 76 -
14:14 14,6 10,4 13,0 ZW 9,8 1019,5 76 -
14:19 14,7 10,5 18,5 WZW 13,8 1019,5 76 -
14:24 14,8 10,6 14,8 ZZW 8,2 1019,5 76 -
14:29 15,0 10,8 13,0 WZW 10,5 1019,5 76 -
14:34 15,4 11,0 14,8 ZW 10,0 1019,5 75 -
14:39 15,6 10,9 16,7 ZW 8,7 1019,4 74 -
14:44 15,4 10,8 18,5 ZZW 12,4 1019,4 74 -
14:49 15,3 10,7 16,1 ZZW 11,6 1019,3 74 -
14:54 15,4 11,0 16,7 WZW 11,7 1019,4 75 -
14:59 15,4 10,8 14,8 ZZW 9,8 1019,5 74 -
15:04 15,6 10,8 14,8 ZZW 8,7 1019,4 73 -
15:09 15,9 11,1 22,2 ZW 10,9 1019,4 73 -
15:14 15,8 10,8 13,0 WZW 11,7 1019,3 72 -
15:19 16,0 10,9 14,8 ZW 8,8 1019,3 72 -
15:24 16,1 10,8 14,8 Westen 8,2 1019,3 71 -
15:29 16,1 10,6 14,8 Westen 7,2 1019,4 70 -
15:34 16,1 10,6 13,0 ZW 6,3 1019,3 70 -
15:39 16,2 10,4 14,8 Westen 8,2 1019,4 69 -
15:44 16,3 10,4 11,1 ZW 6,0 1019,3 68 -
15:49 16,4 10,1 9,7 WZW 7,6 1019,3 66 -
15:54 16,6 9,2 16,7 NW 6,6 1019,3 62 -
15:59 16,7 9,1 7,4 WNW 5,0 1019,3 61 -
16:04 16,7 8,4 8,0 WZW 5,8 1019,3 58 -
16:09 17,1 9,5 11,1 Oosten 3,4 1019,3 61 -
16:14 17,3 9,2 9,7 Westen 3,4 1019,4 59 -
16:19 17,4 9,1 6,4 WNW 6,1 1019,4 58 -
16:24 17,5 9,2 5,6 Westen 1,6 1019,4 58 -
16:29 17,6 8,4 14,8 WNW 3,9 1019,5 55 -
16:34 17,4 8,3 5,6 WZW 4,5 1019,5 55 -
16:39 17,4 8,8 14,8 WZW 7,4 1019,6 57 -
16:44 17,2 8,6 5,6 NW 3,2 1019,4 57 -
16:49 17,1 8,5 18,5 NNW 3,4 1019,6 57 -
16:54 17,0 8,7 7,4 Westen 6,1 1019,5 58 -
16:59 16,8 8,2 16,7 WNW 5,3 1019,5 57 -
17:04 16,7 8,3 9,3 NW 3,4 1019,5 58 -
17:09 16,7 7,9 14,8 Westen 8,0 1019,6 56 -
17:14 16,8 8,2 11,1 WNW 4,2 1019,6 57 -
17:19 16,8 8,0 18,5 ZW 8,0 1019,6 56 -
17:24 17,0 8,4 13,0 WZW 8,4 1019,6 57 -
17:29 16,9 7,8 5,6 Westen 3,2 1019,7 55 -
17:34 16,9 8,6 7,4 Westen 5,8 1019,7 58 -
17:39 16,9 8,9 5,6 WNW 2,4 1019,7 59 -
17:44 17,1 9,0 5,6 Westen 3,2 1019,7 59 -
17:49 16,9 8,6 9,7 WNW 7,4 1019,6 58 -
17:54 16,8 8,4 13,0 WNW 8,7 1019,7 58 -
17:59 16,4 8,6 16,1 WZW 12,2 1019,7 60 -
18:04 15,8 8,6 8,0 WZW 5,5 1019,7 62 -
18:09 15,6 8,1 14,8 WNW 5,8 1019,7 61 -
18:14 15,7 7,9 11,3 WZW 7,9 1019,6 60 -
18:19 15,8 7,5 13,0 WZW 8,4 1019,7 58 -
18:24 15,8 7,5 5,6 WZW 3,1 1019,6 58 -
18:29 15,9 7,6 5,6 Westen 1,3 1019,6 58 -
18:34 16,1 7,6 11,1 Westen 5,8 1019,5 57 -
18:39 16,3 8,0 9,3 ZZW 5,1 1019,5 58 -
18:44 16,3 7,8 6,4 ZW 5,6 1019,5 57 -
18:49 16,4 7,8 5,6 ZW 4,3 1019,4 57 -
18:54 16,3 7,7 6,4 ZW 4,5 1019,4 57 -
18:59 16,2 7,6 6,4 ZW 4,7 1019,3 57 -
19:04 16,2 7,7 8,0 ZW 6,0 1019,4 57 -
19:09 16,4 7,8 5,6 ZW 3,4 1019,4 57 -
19:14 16,6 7,8 7,4 WZW 6,0 1019,4 56 -
19:19 16,6 7,7 5,6 WZW 3,4 1019,3 56 -
19:24 16,3 7,3 5,6 WZW 3,1 1019,2 55 -
19:29 16,1 7,6 5,6 WZW 2,3 1019,2 57 -
19:34 15,8 6,8 5,6 WZW 2,9 1019,2 55 -
19:39 15,6 7,4 3,7 WZW 1,0 1019,2 58 -
19:44 15,5 7,3 3,7 WZW 1,9 1019,2 58 -
19:49 15,4 7,7 5,6 WZW 3,9 1019,2 60 -
19:54 15,3 8,1 5,6 WZW 3,4 1019,1 62 -
19:59 15,2 8,4 5,6 WZW 2,9 1019,2 64 -
20:04 15,1 8,7 5,6 WZW 3,9 1019,2 66 -
20:09 14,9 8,9 5,6 WZW 3,2 1019,2 67 -
20:14 14,9 8,8 5,6 WZW 3,9 1019,2 67 -
20:19 14,8 8,5 3,7 WZW 2,1 1019,2 66 -
20:24 14,8 8,7 5,6 WZW 2,7 1019,2 67 -
20:29 14,8 8,9 3,7 WZW 1,9 1019,2 68 -
20:34 14,7 9,1 5,6 WZW 3,1 1019,1 69 -
20:39 14,7 9,3 5,6 WZW 3,1 1019,1 70 -
20:44 14,7 9,3 3,7 WZW 1,4 1019,0 70 -
20:49 14,7 9,3 5,6 WZW 4,3 1019,0 70 -
20:54 14,7 9,3 3,7 WZW 3,1 1019,0 70 -
20:59 14,7 8,9 5,6 WZW 3,7 1019,0 68 -
21:04 14,7 9,3 5,6 WZW 2,9 1019,1 70 -
21:09 14,7 9,3 5,6 WZW 1,8 1019,1 70 -
21:14 14,6 9,2 5,6 WZW 0,8 1019,1 70 -
21:19 14,4 8,8 3,2 WZW 1,3 1019,1 69 -
21:24 14,3 8,7 3,2 WZW 1,6 1019,1 69 -
21:29 14,3 8,7 5,6 WZW 3,5 1019,1 69 -
21:34 14,3 8,7 3,7 WZW 1,3 1019,1 69 -
21:39 14,2 9,1 1,9 WZW 0,2 1019,1 71 -
21:44 14,2 9,2 1,9 WZW 0,3 1019,1 72 -
21:49 14,1 9,1 3,2 WZW 2,3 1019,2 72 -
21:54 14,0 9,1 5,6 WZW 1,3 1019,2 72 -
21:59 13,9 8,9 3,7 WZW 2,3 1019,2 72 -
22:04 13,8 8,9 3,7 WZW 1,6 1019,2 72 -
22:09 13,7 8,9 3,7 WZW 2,3 1019,2 73 -
22:14 13,7 9,2 1,9 WZW 1,3 1019,3 74 -
22:19 13,7 9,2 1,9 WZW 1,0 1019,2 74 -
22:24 13,7 9,1 1,9 WZW 1,0 1019,3 74 -
22:29 13,7 9,1 3,7 WZW 1,9 1019,3 74 -
22:34 13,6 9,2 1,9 WZW 0,3 1019,2 75 -
22:39 13,5 9,2   Kalm 0,2 1019,3 75 -
22:44 13,5 9,2   Kalm   1019,2 75 -
22:49 13,4 9,1 1,9 WZW 0,2 1019,1 75 -
22:54 13,3 9,2 1,9 WZW   1019,2 76 -
22:59 13,2 9,1   Kalm   1019,1 76 -
23:04 13,1 9,2   Kalm   1019,1 77 -
23:09 13,1 9,1   Kalm   1019,1 77 -

Download your copy of this data-set  here

Our weather-data as stored at Weather Underground. Script ontwikkeld door Jim McMurry. Aangepast voor de template door Leuven-Template.eu

U vindt ons ook hier:

Het Weer Aktueel

European Weather Network

Weather Underground

Benelux Weer Netwerk

Citizen Weather Observer Program (CWOP)

Apparatuur in gebruik:

Weerstation
Davis VP2

Weerprogramma
Weather Display

Weercomputer
My Computer

Webleverancier
WeservIT

Davis VP2

Weather Display

My Computer

WeservIT